sensor_id;sensor_type;location;lat;lon;timestamp;pressure;altitude;pressure_sealevel;temperature;humidity
75759;BME280;64371;47.566;19.086;2023-07-31T00:07:03;100113.63;;;18.65;95.90
75759;BME280;64371;47.566;19.086;2023-07-31T00:10:08;100105.41;;;18.58;95.87
75759;BME280;64371;47.566;19.086;2023-07-31T00:13:11;100112.09;;;18.51;96.04
75759;BME280;64371;47.566;19.086;2023-07-31T00:16:14;100112.75;;;18.48;96.12
75759;BME280;64371;47.566;19.086;2023-07-31T00:19:16;100111.72;;;18.41;96.78
75759;BME280;64371;47.566;19.086;2023-07-31T00:22:19;100119.22;;;18.35;96.79
75759;BME280;64371;47.566;19.086;2023-07-31T00:25:21;100118.66;;;18.30;97.17
75759;BME280;64371;47.566;19.086;2023-07-31T00:28:23;100121.19;;;18.26;97.92
75759;BME280;64371;47.566;19.086;2023-07-31T00:31:26;100119.75;;;18.29;97.86
75759;BME280;64371;47.566;19.086;2023-07-31T00:34:28;100117.00;;;18.25;97.61
75759;BME280;64371;47.566;19.086;2023-07-31T00:37:31;100128.31;;;18.22;98.28
75759;BME280;64371;47.566;19.086;2023-07-31T00:40:37;100129.31;;;18.30;97.91
75759;BME280;64371;47.566;19.086;2023-07-31T00:43:39;100119.31;;;18.27;96.79
75759;BME280;64371;47.566;19.086;2023-07-31T00:46:42;100130.09;;;18.30;96.73
75759;BME280;64371;47.566;19.086;2023-07-31T00:49:45;100133.66;;;18.34;96.05
75759;BME280;64371;47.566;19.086;2023-07-31T00:52:47;100133.09;;;18.29;96.79
75759;BME280;64371;47.566;19.086;2023-07-31T00:55:52;100128.88;;;18.28;96.91
75759;BME280;64371;47.566;19.086;2023-07-31T00:58:55;100131.44;;;18.24;97.55
75759;BME280;64371;47.566;19.086;2023-07-31T01:01:57;100135.66;;;18.25;97.18
75759;BME280;64371;47.566;19.086;2023-07-31T01:05:01;100133.78;;;18.26;96.84
75759;BME280;64371;47.566;19.086;2023-07-31T01:11:16;100137.78;;;18.20;96.82
75759;BME280;64371;47.566;19.086;2023-07-31T01:14:19;100136.56;;;18.17;97.25
75759;BME280;64371;47.566;19.086;2023-07-31T01:17:21;100126.44;;;18.11;97.64
75759;BME280;64371;47.566;19.086;2023-07-31T01:20:26;100138.91;;;18.07;98.09
75759;BME280;64371;47.566;19.086;2023-07-31T01:26:47;100135.75;;;17.92;99.28
75759;BME280;64371;47.566;19.086;2023-07-31T01:30:08;100140.44;;;17.96;99.69
75759;BME280;64371;47.566;19.086;2023-07-31T01:33:16;100149.78;;;17.89;99.68
75759;BME280;64371;47.566;19.086;2023-07-31T01:36:19;100152.44;;;17.89;99.88
75759;BME280;64371;47.566;19.086;2023-07-31T01:39:22;100139.56;;;17.92;99.32
75759;BME280;64371;47.566;19.086;2023-07-31T01:42:24;100141.00;;;17.89;99.48
75759;BME280;64371;47.566;19.086;2023-07-31T01:45:26;100139.88;;;17.90;99.76
75759;BME280;64371;47.566;19.086;2023-07-31T01:48:29;100133.31;;;17.87;99.84
75759;BME280;64371;47.566;19.086;2023-07-31T01:51:37;100137.09;;;17.86;99.75
75759;BME280;64371;47.566;19.086;2023-07-31T01:54:40;100136.75;;;17.76;100.00
75759;BME280;64371;47.566;19.086;2023-07-31T01:57:43;100131.31;;;17.84;99.99
75759;BME280;64371;47.566;19.086;2023-07-31T02:00:45;100120.09;;;17.79;100.00
75759;BME280;64371;47.566;19.086;2023-07-31T02:03:48;100124.44;;;17.83;100.00
75759;BME280;64371;47.566;19.086;2023-07-31T02:06:50;100111.00;;;17.80;100.00
75759;BME280;64371;47.566;19.086;2023-07-31T02:09:53;100114.97;;;17.86;100.00
75759;BME280;64371;47.566;19.086;2023-07-31T02:12:56;100113.09;;;17.74;100.00
75759;BME280;64371;47.566;19.086;2023-07-31T02:15:59;100120.22;;;17.70;100.00
75759;BME280;64371;47.566;19.086;2023-07-31T02:19:02;100119.19;;;17.63;100.00
75759;BME280;64371;47.566;19.086;2023-07-31T02:22:04;100123.25;;;17.48;100.00
75759;BME280;64371;47.566;19.086;2023-07-31T02:25:07;100130.00;;;17.46;100.00
75759;BME280;64371;47.566;19.086;2023-07-31T02:28:10;100133.56;;;17.50;100.00
75759;BME280;64371;47.566;19.086;2023-07-31T02:31:13;100127.13;;;17.51;100.00
75759;BME280;64371;47.566;19.086;2023-07-31T02:34:15;100131.88;;;17.45;100.00
75759;BME280;64371;47.566;19.086;2023-07-31T02:37:17;100126.75;;;17.40;100.00
75759;BME280;64371;47.566;19.086;2023-07-31T02:40:21;100124.44;;;17.39;100.00
75759;BME280;64371;47.566;19.086;2023-07-31T02:43:23;100133.97;;;17.40;100.00
75759;BME280;64371;47.566;19.086;2023-07-31T02:46:25;100135.44;;;17.49;99.57
75759;BME280;64371;47.566;19.086;2023-07-31T02:49:28;100125.66;;;17.41;99.25
75759;BME280;64371;47.566;19.086;2023-07-31T02:52:30;100122.31;;;17.44;99.21
75759;BME280;64371;47.566;19.086;2023-07-31T02:55:33;100135.44;;;17.49;97.80
75759;BME280;64371;47.566;19.086;2023-07-31T02:58:35;100134.94;;;17.56;96.93
75759;BME280;64371;47.566;19.086;2023-07-31T03:01:37;100148.50;;;17.63;96.74
75759;BME280;64371;47.566;19.086;2023-07-31T03:04:40;100148.50;;;17.63;96.52
75759;BME280;64371;47.566;19.086;2023-07-31T03:07:42;100153.63;;;17.68;95.89
75759;BME280;64371;47.566;19.086;2023-07-31T03:10:45;100151.41;;;17.70;95.53
75759;BME280;64371;47.566;19.086;2023-07-31T03:13:47;100146.59;;;17.63;95.47
75759;BME280;64371;47.566;19.086;2023-07-31T03:16:49;100140.81;;;17.61;95.20
75759;BME280;64371;47.566;19.086;2023-07-31T03:19:52;100156.16;;;17.64;95.41
75759;BME280;64371;47.566;19.086;2023-07-31T03:22:54;100157.59;;;17.62;95.39
75759;BME280;64371;47.566;19.086;2023-07-31T03:25:58;100154.59;;;17.63;95.35
75759;BME280;64371;47.566;19.086;2023-07-31T03:29:03;100145.94;;;17.66;95.13
75759;BME280;64371;47.566;19.086;2023-07-31T03:32:05;100157.63;;;17.74;94.54
75759;BME280;64371;47.566;19.086;2023-07-31T03:35:08;100163.09;;;17.77;94.06
75759;BME280;64371;47.566;19.086;2023-07-31T03:38:11;100147.78;;;17.86;93.56
75759;BME280;64371;47.566;19.086;2023-07-31T03:41:16;100159.56;;;17.98;92.86
75759;BME280;64371;47.566;19.086;2023-07-31T03:44:19;100160.09;;;17.91;92.90
75759;BME280;64371;47.566;19.086;2023-07-31T03:47:22;100157.56;;;17.95;92.85
75759;BME280;64371;47.566;19.086;2023-07-31T03:50:27;100162.56;;;17.96;92.93
75759;BME280;64371;47.566;19.086;2023-07-31T03:53:29;100172.47;;;18.08;92.18
75759;BME280;64371;47.566;19.086;2023-07-31T03:56:32;100158.03;;;18.09;91.63
75759;BME280;64371;47.566;19.086;2023-07-31T03:59:37;100166.03;;;18.09;91.69
75759;BME280;64371;47.566;19.086;2023-07-31T04:02:42;100169.91;;;18.11;91.71
75759;BME280;64371;47.566;19.086;2023-07-31T04:05:45;100162.44;;;18.17;91.12
75759;BME280;64371;47.566;19.086;2023-07-31T04:08:47;100166.13;;;18.36;89.76
75759;BME280;64371;47.566;19.086;2023-07-31T04:11:49;100165.13;;;18.41;89.80
75759;BME280;64371;47.566;19.086;2023-07-31T04:14:52;100168.78;;;18.61;88.03
75759;BME280;64371;47.566;19.086;2023-07-31T04:17:54;100169.78;;;18.68;87.87
75759;BME280;64371;47.566;19.086;2023-07-31T04:20:57;100175.03;;;18.65;87.42
75759;BME280;64371;47.566;19.086;2023-07-31T04:24:00;100180.38;;;18.65;87.57
75759;BME280;64371;47.566;19.086;2023-07-31T04:27:03;100175.56;;;18.70;86.77
75759;BME280;64371;47.566;19.086;2023-07-31T04:30:06;100172.03;;;18.66;86.02
75759;BME280;64371;47.566;19.086;2023-07-31T04:33:08;100177.50;;;18.58;86.46
75759;BME280;64371;47.566;19.086;2023-07-31T04:36:11;100173.25;;;18.57;86.18
75759;BME280;64371;47.566;19.086;2023-07-31T04:39:13;100166.25;;;18.64;85.34
75759;BME280;64371;47.566;19.086;2023-07-31T04:42:16;100173.03;;;18.62;85.60
75759;BME280;64371;47.566;19.086;2023-07-31T04:45:18;100177.56;;;18.73;84.88
75759;BME280;64371;47.566;19.086;2023-07-31T04:48:20;100178.34;;;18.74;84.43
75759;BME280;64371;47.566;19.086;2023-07-31T04:51:23;100179.56;;;18.76;84.08
75759;BME280;64371;47.566;19.086;2023-07-31T04:54:25;100190.59;;;18.87;82.96
75759;BME280;64371;47.566;19.086;2023-07-31T04:57:28;100190.34;;;18.80;82.52
75759;BME280;64371;47.566;19.086;2023-07-31T05:00:31;100193.13;;;18.83;82.45
75759;BME280;64371;47.566;19.086;2023-07-31T05:03:33;100193.56;;;18.85;81.12
75759;BME280;64371;47.566;19.086;2023-07-31T05:06:36;100195.19;;;19.02;79.53
75759;BME280;64371;47.566;19.086;2023-07-31T05:09:39;100203.56;;;19.28;77.64
75759;BME280;64371;47.566;19.086;2023-07-31T05:12:41;100193.38;;;19.18;77.69
75759;BME280;64371;47.566;19.086;2023-07-31T05:15:44;100195.47;;;18.85;76.98
75759;BME280;64371;47.566;19.086;2023-07-31T05:18:46;100200.56;;;18.90;76.69
75759;BME280;64371;47.566;19.086;2023-07-31T05:21:48;100199.56;;;18.94;75.91
75759;BME280;64371;47.566;19.086;2023-07-31T05:24:51;100196.66;;;19.39;73.54
75759;BME280;64371;47.566;19.086;2023-07-31T05:27:53;100198.00;;;19.61;72.14
75759;BME280;64371;47.566;19.086;2023-07-31T05:31:02;100204.19;;;20.08;70.27
75759;BME280;64371;47.566;19.086;2023-07-31T05:34:05;100198.06;;;20.55;66.99
75759;BME280;64371;47.566;19.086;2023-07-31T05:37:07;100204.97;;;20.56;65.24
75759;BME280;64371;47.566;19.086;2023-07-31T05:40:10;100201.63;;;20.78;64.61
75759;BME280;64371;47.566;19.086;2023-07-31T05:43:12;100207.69;;;21.48;63.29
75759;BME280;64371;47.566;19.086;2023-07-31T05:46:15;100216.47;;;21.87;61.48
75759;BME280;64371;47.566;19.086;2023-07-31T05:49:17;100207.00;;;21.73;61.42
75759;BME280;64371;47.566;19.086;2023-07-31T05:52:20;100201.31;;;21.98;60.23
75759;BME280;64371;47.566;19.086;2023-07-31T05:55:22;100208.84;;;21.89;60.80
75759;BME280;64371;47.566;19.086;2023-07-31T05:58:25;100209.22;;;21.87;60.79
75759;BME280;64371;47.566;19.086;2023-07-31T06:01:28;100200.72;;;21.43;61.24
75759;BME280;64371;47.566;19.086;2023-07-31T06:04:30;100218.75;;;21.27;61.00
75759;BME280;64371;47.566;19.086;2023-07-31T06:07:33;100218.59;;;21.97;58.36
75759;BME280;64371;47.566;19.086;2023-07-31T06:10:35;100218.84;;;21.11;60.98
75759;BME280;64371;47.566;19.086;2023-07-31T06:13:38;100221.88;;;21.48;59.73
75759;BME280;64371;47.566;19.086;2023-07-31T06:16:44;100224.19;;;20.77;61.62
75759;BME280;64371;47.566;19.086;2023-07-31T06:19:47;100231.06;;;20.93;61.39
75759;BME280;64371;47.566;19.086;2023-07-31T06:22:49;100221.66;;;20.84;60.66
75759;BME280;64371;47.566;19.086;2023-07-31T06:25:51;100230.22;;;21.43;60.21
75759;BME280;64371;47.566;19.086;2023-07-31T06:28:54;100229.22;;;21.32;59.88
75759;BME280;64371;47.566;19.086;2023-07-31T06:31:56;100223.78;;;22.09;58.33
75759;BME280;64371;47.566;19.086;2023-07-31T06:35:05;100221.34;;;22.75;56.58
75759;BME280;64371;47.566;19.086;2023-07-31T06:38:07;100218.31;;;23.06;54.42
75759;BME280;64371;47.566;19.086;2023-07-31T06:41:10;100219.91;;;23.77;52.98
75759;BME280;64371;47.566;19.086;2023-07-31T06:44:12;100211.03;;;24.14;51.19
75759;BME280;64371;47.566;19.086;2023-07-31T06:47:14;100220.78;;;24.29;50.66
75759;BME280;64371;47.566;19.086;2023-07-31T06:50:17;100220.84;;;23.26;53.04
75759;BME280;64371;47.566;19.086;2023-07-31T06:53:19;100224.16;;;23.12;52.56
75759;BME280;64371;47.566;19.086;2023-07-31T06:56:21;100224.47;;;22.06;55.10
75759;BME280;64371;47.566;19.086;2023-07-31T06:59:24;100225.81;;;21.54;57.20
75759;BME280;64371;47.566;19.086;2023-07-31T07:02:26;100219.69;;;21.54;59.06
75759;BME280;64371;47.566;19.086;2023-07-31T07:05:29;100222.50;;;21.23;60.12
75759;BME280;64371;47.566;19.086;2023-07-31T07:08:31;100228.03;;;20.95;60.49
75759;BME280;64371;47.566;19.086;2023-07-31T07:11:34;100223.84;;;21.32;58.63
75759;BME280;64371;47.566;19.086;2023-07-31T07:14:36;100222.78;;;21.56;57.85
75759;BME280;64371;47.566;19.086;2023-07-31T07:17:39;100235.16;;;21.60;57.46
75759;BME280;64371;47.566;19.086;2023-07-31T07:20:52;100231.25;;;22.00;56.15
75759;BME280;64371;47.566;19.086;2023-07-31T07:23:55;100229.91;;;22.58;53.00
75759;BME280;64371;47.566;19.086;2023-07-31T07:26:57;100232.47;;;23.33;51.31
75759;BME280;64371;47.566;19.086;2023-07-31T07:30:00;100240.44;;;23.23;49.03
75759;BME280;64371;47.566;19.086;2023-07-31T07:33:03;100232.38;;;22.96;50.21
75759;BME280;64371;47.566;19.086;2023-07-31T07:36:06;100236.97;;;23.22;50.25
75759;BME280;64371;47.566;19.086;2023-07-31T07:39:12;100233.72;;;23.09;48.97
75759;BME280;64371;47.566;19.086;2023-07-31T07:42:14;100238.97;;;23.62;47.41
75759;BME280;64371;47.566;19.086;2023-07-31T07:45:17;100241.47;;;23.81;45.31
75759;BME280;64371;47.566;19.086;2023-07-31T07:48:19;100233.81;;;23.17;47.25
75759;BME280;64371;47.566;19.086;2023-07-31T07:51:21;100236.59;;;23.57;46.57
75759;BME280;64371;47.566;19.086;2023-07-31T07:54:24;100228.53;;;23.57;44.50
75759;BME280;64371;47.566;19.086;2023-07-31T07:57:27;100210.31;;;23.40;45.36
75759;BME280;64371;47.566;19.086;2023-07-31T08:00:30;100231.97;;;23.54;44.37
75759;BME280;64371;47.566;19.086;2023-07-31T08:03:32;100235.22;;;24.07;43.83
75759;BME280;64371;47.566;19.086;2023-07-31T08:06:35;100241.63;;;24.90;42.54
75759;BME280;64371;47.566;19.086;2023-07-31T08:09:37;100231.59;;;24.90;41.61
75759;BME280;64371;47.566;19.086;2023-07-31T08:12:40;100239.63;;;25.59;40.00
75759;BME280;64371;47.566;19.086;2023-07-31T08:15:42;100233.44;;;25.55;40.28
75759;BME280;64371;47.566;19.086;2023-07-31T08:18:45;100236.63;;;24.95;41.10
75759;BME280;64371;47.566;19.086;2023-07-31T08:21:48;100244.72;;;24.92;40.65
75759;BME280;64371;47.566;19.086;2023-07-31T08:24:50;100245.38;;;25.54;40.03
75759;BME280;64371;47.566;19.086;2023-07-31T08:27:53;100224.16;;;25.49;39.96
75759;BME280;64371;47.566;19.086;2023-07-31T08:30:56;100236.59;;;26.63;37.55
75759;BME280;64371;47.566;19.086;2023-07-31T08:33:58;100228.78;;;25.45;40.36
75759;BME280;64371;47.566;19.086;2023-07-31T08:37:01;100238.47;;;25.67;40.47
75759;BME280;64371;47.566;19.086;2023-07-31T08:40:05;100226.50;;;25.57;39.99
75759;BME280;64371;47.566;19.086;2023-07-31T08:43:08;100226.13;;;25.59;39.86
75759;BME280;64371;47.566;19.086;2023-07-31T08:46:11;100226.97;;;26.37;38.94
75759;BME280;64371;47.566;19.086;2023-07-31T08:49:14;100220.38;;;26.59;36.81
75759;BME280;64371;47.566;19.086;2023-07-31T08:52:17;100222.03;;;27.50;36.02
75759;BME280;64371;47.566;19.086;2023-07-31T08:55:19;100225.50;;;27.47;35.54
75759;BME280;64371;47.566;19.086;2023-07-31T08:58:33;100222.03;;;27.50;36.15
75759;BME280;64371;47.566;19.086;2023-07-31T09:01:41;100219.75;;;27.42;35.76
75759;BME280;64371;47.566;19.086;2023-07-31T09:04:45;100216.50;;;26.71;36.73
75759;BME280;64371;47.566;19.086;2023-07-31T09:07:49;100214.56;;;26.71;37.43
75759;BME280;64371;47.566;19.086;2023-07-31T09:10:52;100215.75;;;26.53;37.27
75759;BME280;64371;47.566;19.086;2023-07-31T09:13:57;100203.38;;;25.70;38.09
75759;BME280;64371;47.566;19.086;2023-07-31T09:17:00;100206.09;;;25.85;38.88
75759;BME280;64371;47.566;19.086;2023-07-31T09:20:19;100213.44;;;25.91;38.30
75759;BME280;64371;47.566;19.086;2023-07-31T09:23:22;100219.97;;;26.68;37.67
75759;BME280;64371;47.566;19.086;2023-07-31T09:26:36;100222.75;;;26.32;37.90
75759;BME280;64371;47.566;19.086;2023-07-31T09:29:40;100219.97;;;25.69;38.54
75759;BME280;64371;47.566;19.086;2023-07-31T09:32:43;100218.84;;;26.44;38.33
75759;BME280;64371;47.566;19.086;2023-07-31T09:35:46;100207.63;;;26.60;38.04
75759;BME280;64371;47.566;19.086;2023-07-31T09:38:50;100212.25;;;25.85;38.83
75759;BME280;64371;47.566;19.086;2023-07-31T09:41:54;100218.13;;;26.15;38.39
75759;BME280;64371;47.566;19.086;2023-07-31T09:45:18;100200.72;;;25.92;37.90
75759;BME280;64371;47.566;19.086;2023-07-31T09:48:29;100199.41;;;25.36;40.16
75759;BME280;64371;47.566;19.086;2023-07-31T09:51:33;100196.81;;;25.82;39.35
75759;BME280;64371;47.566;19.086;2023-07-31T09:54:40;100188.97;;;25.24;39.60
75759;BME280;64371;47.566;19.086;2023-07-31T09:57:46;100200.66;;;25.63;39.31
75759;BME280;64371;47.566;19.086;2023-07-31T10:00:48;100191.78;;;26.58;37.30
75759;BME280;64371;47.566;19.086;2023-07-31T10:03:51;100193.31;;;26.66;37.96
75759;BME280;64371;47.566;19.086;2023-07-31T10:06:53;100208.06;;;26.19;37.60
75759;BME280;64371;47.566;19.086;2023-07-31T10:10:00;100199.91;;;25.74;38.31
75759;BME280;64371;47.566;19.086;2023-07-31T10:13:05;100196.06;;;26.38;37.74
75759;BME280;64371;47.566;19.086;2023-07-31T10:16:09;100198.75;;;25.99;37.74
75759;BME280;64371;47.566;19.086;2023-07-31T10:19:12;100195.69;;;26.04;38.11
75759;BME280;64371;47.566;19.086;2023-07-31T10:22:14;100192.56;;;25.70;38.63
75759;BME280;64371;47.566;19.086;2023-07-31T10:25:18;100191.84;;;25.84;38.67
75759;BME280;64371;47.566;19.086;2023-07-31T10:28:22;100191.06;;;26.12;38.49
75759;BME280;64371;47.566;19.086;2023-07-31T10:31:25;100192.22;;;25.86;39.53
75759;BME280;64371;47.566;19.086;2023-07-31T10:34:28;100183.34;;;26.03;39.40
75759;BME280;64371;47.566;19.086;2023-07-31T10:40:41;100181.00;;;26.09;40.07
75759;BME280;64371;47.566;19.086;2023-07-31T10:43:46;100182.19;;;26.40;39.65
75759;BME280;64371;47.566;19.086;2023-07-31T10:46:54;100169.44;;;26.05;39.88
75759;BME280;64371;47.566;19.086;2023-07-31T10:53:31;100175.09;;;25.22;41.02
75759;BME280;64371;47.566;19.086;2023-07-31T10:56:37;100174.34;;;25.39;40.68
75759;BME280;64371;47.566;19.086;2023-07-31T10:59:41;100162.66;;;24.93;41.41
75759;BME280;64371;47.566;19.086;2023-07-31T11:06:04;100182.72;;;24.37;42.28
75759;BME280;64371;47.566;19.086;2023-07-31T11:09:06;100173.81;;;24.26;43.09
75759;BME280;64371;47.566;19.086;2023-07-31T11:12:09;100165.97;;;24.69;42.72
75759;BME280;64371;47.566;19.086;2023-07-31T11:15:12;100162.75;;;25.14;41.92
75759;BME280;64371;47.566;19.086;2023-07-31T11:18:15;100160.94;;;25.71;40.46
75759;BME280;64371;47.566;19.086;2023-07-31T11:21:21;100163.88;;;25.13;41.40
75759;BME280;64371;47.566;19.086;2023-07-31T11:24:24;100151.59;;;25.26;41.19
75759;BME280;64371;47.566;19.086;2023-07-31T11:27:28;100146.50;;;25.03;41.39
75759;BME280;64371;47.566;19.086;2023-07-31T11:30:31;100145.28;;;24.83;42.10
75759;BME280;64371;47.566;19.086;2023-07-31T11:33:34;100141.22;;;25.46;42.24
75759;BME280;64371;47.566;19.086;2023-07-31T11:36:36;100146.47;;;24.89;41.77
75759;BME280;64371;47.566;19.086;2023-07-31T11:39:39;100146.91;;;25.13;41.10
75759;BME280;64371;47.566;19.086;2023-07-31T11:42:42;100140.47;;;25.45;40.62
75759;BME280;64371;47.566;19.086;2023-07-31T11:45:52;100136.53;;;25.11;41.37
75759;BME280;64371;47.566;19.086;2023-07-31T11:48:59;100142.75;;;25.33;40.88
75759;BME280;64371;47.566;19.086;2023-07-31T11:52:06;100139.28;;;25.43;40.69
75759;BME280;64371;47.566;19.086;2023-07-31T11:55:09;100137.94;;;24.77;41.48
75759;BME280;64371;47.566;19.086;2023-07-31T11:58:15;100135.22;;;24.77;41.04
75759;BME280;64371;47.566;19.086;2023-07-31T12:01:19;100131.09;;;25.08;41.25
75759;BME280;64371;47.566;19.086;2023-07-31T12:04:24;100132.69;;;25.30;41.29
75759;BME280;64371;47.566;19.086;2023-07-31T12:07:27;100124.66;;;25.47;41.40
75759;BME280;64371;47.566;19.086;2023-07-31T12:10:31;100120.28;;;24.97;40.86
75759;BME280;64371;47.566;19.086;2023-07-31T12:13:34;100117.25;;;25.09;40.51
75759;BME280;64371;47.566;19.086;2023-07-31T12:16:37;100108.75;;;25.07;40.69
75759;BME280;64371;47.566;19.086;2023-07-31T12:19:40;100110.31;;;25.12;40.01
75759;BME280;64371;47.566;19.086;2023-07-31T12:22:43;100110.66;;;24.96;40.95
75759;BME280;64371;47.566;19.086;2023-07-31T12:25:45;100110.22;;;24.83;41.07
75759;BME280;64371;47.566;19.086;2023-07-31T12:28:49;100106.00;;;24.82;41.45
75759;BME280;64371;47.566;19.086;2023-07-31T12:31:52;100103.56;;;24.63;42.06
75759;BME280;64371;47.566;19.086;2023-07-31T12:34:54;100104.81;;;24.83;41.75
75759;BME280;64371;47.566;19.086;2023-07-31T12:38:01;100092.78;;;24.67;41.74
75759;BME280;64371;47.566;19.086;2023-07-31T12:41:03;100093.53;;;24.64;41.78
75759;BME280;64371;47.566;19.086;2023-07-31T12:44:06;100085.22;;;25.00;41.63
75759;BME280;64371;47.566;19.086;2023-07-31T12:47:08;100082.25;;;25.65;41.09
75759;BME280;64371;47.566;19.086;2023-07-31T12:50:12;100088.03;;;25.64;40.58
75759;BME280;64371;47.566;19.086;2023-07-31T12:53:15;100074.16;;;25.62;40.60
75759;BME280;64371;47.566;19.086;2023-07-31T12:56:17;100076.09;;;25.47;40.70
75759;BME280;64371;47.566;19.086;2023-07-31T12:59:20;100072.63;;;25.57;40.97
75759;BME280;64371;47.566;19.086;2023-07-31T13:02:22;100068.38;;;25.67;40.14
75759;BME280;64371;47.566;19.086;2023-07-31T13:05:28;100064.88;;;25.70;39.94
75759;BME280;64371;47.566;19.086;2023-07-31T13:08:31;100061.34;;;26.19;38.43
75759;BME280;64371;47.566;19.086;2023-07-31T13:11:33;100058.69;;;25.98;38.81
75759;BME280;64371;47.566;19.086;2023-07-31T13:14:36;100067.94;;;26.18;38.30
75759;BME280;64371;47.566;19.086;2023-07-31T13:17:38;100054.03;;;26.09;37.93
75759;BME280;64371;47.566;19.086;2023-07-31T13:20:41;100061.75;;;26.14;38.53
75759;BME280;64371;47.566;19.086;2023-07-31T13:23:43;100053.28;;;25.91;38.62
75759;BME280;64371;47.566;19.086;2023-07-31T13:26:45;100044.81;;;25.85;39.12
75759;BME280;64371;47.566;19.086;2023-07-31T13:29:48;100045.94;;;26.16;39.82
75759;BME280;64371;47.566;19.086;2023-07-31T13:32:51;100051.28;;;26.33;38.87
75759;BME280;64371;47.566;19.086;2023-07-31T13:35:53;100045.84;;;26.44;37.46
75759;BME280;64371;47.566;19.086;2023-07-31T13:38:56;100042.06;;;26.17;38.02
75759;BME280;64371;47.566;19.086;2023-07-31T13:41:58;100045.94;;;26.23;38.13
75759;BME280;64371;47.566;19.086;2023-07-31T13:45:01;100038.97;;;26.08;38.45
75759;BME280;64371;47.566;19.086;2023-07-31T13:48:08;100038.94;;;26.29;38.12
75759;BME280;64371;47.566;19.086;2023-07-31T13:51:11;100043.16;;;26.37;37.45
75759;BME280;64371;47.566;19.086;2023-07-31T13:54:13;100035.88;;;26.20;38.55
75759;BME280;64371;47.566;19.086;2023-07-31T13:57:17;100035.09;;;26.09;37.50
75759;BME280;64371;47.566;19.086;2023-07-31T14:00:20;100039.34;;;26.06;37.60
75759;BME280;64371;47.566;19.086;2023-07-31T14:03:22;100023.88;;;26.31;36.54
75759;BME280;64371;47.566;19.086;2023-07-31T14:06:25;100032.38;;;26.30;36.12
75759;BME280;64371;47.566;19.086;2023-07-31T14:09:27;100032.44;;;25.95;37.25
75759;BME280;64371;47.566;19.086;2023-07-31T14:12:30;100021.25;;;26.03;37.74
75759;BME280;64371;47.566;19.086;2023-07-31T14:15:44;100022.38;;;26.20;37.72
75759;BME280;64371;47.566;19.086;2023-07-31T14:18:46;100020.78;;;26.29;37.73
75759;BME280;64371;47.566;19.086;2023-07-31T14:21:49;100012.34;;;25.99;37.67
75759;BME280;64371;47.566;19.086;2023-07-31T14:25:10;100016.66;;;25.79;38.42
75759;BME280;64371;47.566;19.086;2023-07-31T14:28:13;100010.91;;;25.66;38.50
75759;BME280;64371;47.566;19.086;2023-07-31T14:31:15;100009.38;;;25.62;38.75
75759;BME280;64371;47.566;19.086;2023-07-31T14:34:18;100012.44;;;25.75;38.89
75759;BME280;64371;47.566;19.086;2023-07-31T14:37:20;100002.00;;;25.84;39.26
75759;BME280;64371;47.566;19.086;2023-07-31T14:40:22;100001.94;;;26.12;39.17
75759;BME280;64371;47.566;19.086;2023-07-31T14:43:25;100001.88;;;26.26;37.85
75759;BME280;64371;47.566;19.086;2023-07-31T14:46:27;100004.06;;;26.59;37.53
75759;BME280;64371;47.566;19.086;2023-07-31T14:49:30;100004.06;;;26.56;37.20
75759;BME280;64371;47.566;19.086;2023-07-31T14:52:32;100002.47;;;26.65;36.79
75759;BME280;64371;47.566;19.086;2023-07-31T14:55:34;99996.38;;;26.54;37.46
75759;BME280;64371;47.566;19.086;2023-07-31T14:58:37;99997.38;;;26.74;37.06
75759;BME280;64371;47.566;19.086;2023-07-31T15:01:39;100001.47;;;26.31;37.63
75759;BME280;64371;47.566;19.086;2023-07-31T15:04:42;99995.28;;;26.38;37.84
75759;BME280;64371;47.566;19.086;2023-07-31T15:07:44;99993.84;;;26.15;37.87
75759;BME280;64371;47.566;19.086;2023-07-31T15:10:46;99997.16;;;26.51;38.32
75759;BME280;64371;47.566;19.086;2023-07-31T15:13:49;99992.50;;;26.52;37.82
75759;BME280;64371;47.566;19.086;2023-07-31T15:16:52;99988.28;;;26.47;37.54
75759;BME280;64371;47.566;19.086;2023-07-31T15:19:54;99985.63;;;26.37;37.23
75759;BME280;64371;47.566;19.086;2023-07-31T15:22:57;99984.06;;;26.39;37.30
75759;BME280;64371;47.566;19.086;2023-07-31T15:25:59;99983.03;;;26.05;38.40
75759;BME280;64371;47.566;19.086;2023-07-31T15:29:06;99984.16;;;26.25;38.47
75759;BME280;64371;47.566;19.086;2023-07-31T15:32:13;99984.56;;;26.13;38.25
75759;BME280;64371;47.566;19.086;2023-07-31T15:35:16;99969.94;;;25.96;38.74
75759;BME280;64371;47.566;19.086;2023-07-31T15:38:21;99975.28;;;26.17;37.92
75759;BME280;64371;47.566;19.086;2023-07-31T15:41:24;99973.75;;;26.20;38.09
75759;BME280;64371;47.566;19.086;2023-07-31T15:44:27;99966.72;;;26.33;37.64
75759;BME280;64371;47.566;19.086;2023-07-31T15:47:29;99962.13;;;26.30;37.89
75759;BME280;64371;47.566;19.086;2023-07-31T15:50:32;99960.19;;;26.27;37.41
75759;BME280;64371;47.566;19.086;2023-07-31T15:53:34;99946.81;;;25.88;38.08
75759;BME280;64371;47.566;19.086;2023-07-31T15:56:37;99949.91;;;25.83;38.31
75759;BME280;64371;47.566;19.086;2023-07-31T15:59:40;99952.97;;;25.92;38.28
75759;BME280;64371;47.566;19.086;2023-07-31T16:02:43;99949.94;;;25.69;38.08
75759;BME280;64371;47.566;19.086;2023-07-31T16:05:45;99951.09;;;25.72;38.92
75759;BME280;64371;47.566;19.086;2023-07-31T16:08:48;99949.94;;;25.73;38.46